Time;durP1;ratioP1;P1;durP2;ratioP2;P2;SDS_P1;SDS_P2;PMS_P1;PMS_P2;Temp;Humidity;BMP_temperature;BMP_pressure;BME280_temperature;BME280_humidity;BME280_pressure;Samples;Min_cycle;Max_cycle;Signal;HPM_P1;HPM_P2
2021/04/12 00:01:59;;;;;;;3.20;0.50;;;20.80;39.70;;;;;;5003998;28;20486;-73
2021/04/12 00:04:30;;;;;;;0.70;0.50;;;20.80;39.80;;;;;;5007615;28;20458;-73
2021/04/12 00:07:00;;;;;;;1.05;0.50;;;20.80;39.70;;;;;;4997134;28;21071;-74
2021/04/12 00:09:31;;;;;;;0.70;0.50;;;20.80;39.50;;;;;;5007253;28;20416;-73
2021/04/12 00:12:01;;;;;;;1.08;0.73;;;20.80;39.60;;;;;;5008053;28;20415;-73
2021/04/12 00:14:29;;;;;;;1.00;0.60;;;20.80;39.60;;;;;;5008419;28;20421;-73
2021/04/12 00:16:57;;;;;;;0.70;0.50;;;20.80;39.40;;;;;;5007075;28;20415;-72
2021/04/12 00:19:29;;;;;;;0.65;0.50;;;20.90;39.70;;;;;;5005634;28;20415;-74
2021/04/12 00:21:57;;;;;;;1.40;0.70;;;20.90;39.80;;;;;;4994585;28;20791;-72
2021/04/12 00:24:24;;;;;;;0.90;0.65;;;20.90;39.60;;;;;;4999717;28;20915;-74
2021/04/12 00:26:54;;;;;;;2.97;0.65;;;20.90;39.30;;;;;;5010538;28;20477;-73
2021/04/12 00:29:23;;;;;;;1.83;0.60;;;20.90;39.00;;;;;;4999973;28;20465;-73
2021/04/12 00:31:51;;;;;;;1.80;0.60;;;20.80;39.30;;;;;;5005701;28;20408;-73
2021/04/12 00:34:19;;;;;;;1.40;0.50;;;20.80;39.60;;;;;;5001773;28;20425;-72
2021/04/12 00:36:48;;;;;;;1.48;0.60;;;20.80;39.30;;;;;;4999534;28;20419;-73
2021/04/12 00:39:17;;;;;;;1.20;0.50;;;20.80;39.30;;;;;;5007551;28;20533;-74
2021/04/12 00:42:08;;;;;;;1.20;0.50;;;20.80;39.70;;;;;;5007153;28;20480;-72
2021/04/12 00:44:50;;;;;;;2.10;0.60;;;20.80;39.80;;;;;;4994969;28;20407;-73
2021/04/12 00:47:21;;;;;;;2.40;0.50;;;20.70;39.10;;;;;;5000009;28;20417;-74
2021/04/12 00:49:56;;;;;;;1.20;0.50;;;20.70;39.20;;;;;;4994058;28;20446;-74
2021/04/12 00:52:46;;;;;;;1.40;0.70;;;20.70;39.40;;;;;;5010626;28;20419;-72
2021/04/12 00:55:20;;;;;;;1.45;0.70;;;20.70;38.90;;;;;;4996105;28;20425;-73
2021/04/12 00:57:56;;;;;;;0.70;0.50;;;20.70;39.30;;;;;;5001879;28;21036;-72
2021/04/12 01:00:25;;;;;;;0.52;0.50;;;20.70;38.90;;;;;;5001109;28;20420;-72
2021/04/12 01:03:17;;;;;;;1.00;0.55;;;20.70;39.40;;;;;;5015544;28;20423;-71
2021/04/12 01:05:48;;;;;;;0.50;0.50;;;20.70;39.60;;;;;;5007534;28;20489;-72
2021/04/12 01:08:37;;;;;;;0.80;0.50;;;20.70;39.60;;;;;;5003822;28;20487;-72
2021/04/12 01:11:28;;;;;;;1.70;0.60;;;20.80;39.70;;;;;;5003970;28;20467;-73
2021/04/12 01:14:09;;;;;;;1.00;0.50;;;20.80;39.70;;;;;;5005156;28;20537;-73
2021/04/12 01:16:47;;;;;;;0.90;0.60;;;20.80;39.70;;;;;;5003550;28;20458;-72
2021/04/12 01:19:53;;;;;;;1.60;0.60;;;20.80;39.50;;;;;;5006579;28;20512;-72
2021/04/12 01:22:57;;;;;;;0.90;0.70;;;20.80;39.30;;;;;;5001423;28;20437;-74
2021/04/12 01:26:08;;;;;;;1.87;0.50;;;20.70;39.20;;;;;;5006439;28;20431;-73
2021/04/12 01:29:10;;;;;;;0.70;0.50;;;20.70;39.20;;;;;;4980885;28;20431;-73
2021/04/12 01:32:24;;;;;;;2.20;0.60;;;20.70;39.10;;;;;;5003509;28;20409;-73
2021/04/12 01:35:19;;;;;;;0.70;0.50;;;20.70;39.50;;;;;;4942367;28;20586;-74
2021/04/12 01:37:50;;;;;;;0.70;0.60;;;20.70;38.60;;;;;;4943906;28;20426;-72
2021/04/12 01:40:26;;;;;;;4.85;0.60;;;20.70;39.00;;;;;;4979083;28;20408;-72
2021/04/12 01:42:55;;;;;;;2.38;0.70;;;20.70;38.60;;;;;;4984235;28;20412;-72
2021/04/12 01:45:27;;;;;;;1.40;0.60;;;20.70;39.20;;;;;;4995701;28;20407;-72
2021/04/12 01:48:35;;;;;;;1.02;0.60;;;20.70;38.50;;;;;;4981096;28;20410;-73
2021/04/12 01:51:33;;;;;;;1.00;0.55;;;20.70;39.00;;;;;;4950109;28;20431;-72
2021/04/12 01:54:21;;;;;;;2.33;0.70;;;20.70;38.70;;;;;;4993613;28;20502;-72
2021/04/12 01:57:12;;;;;;;0.60;0.57;;;20.70;38.50;;;;;;5002525;28;20997;-72
2021/04/12 01:59:46;;;;;;;0.80;0.50;;;20.70;39.30;;;;;;4995916;28;20769;-74
2021/04/12 02:02:17;;;;;;;0.83;0.60;;;20.70;39.60;;;;;;5005055;28;20438;-73
2021/04/12 02:05:09;;;;;;;2.58;0.68;;;20.70;39.60;;;;;;5007915;28;20773;-73
2021/04/12 02:07:42;;;;;;;1.50;0.70;;;20.70;39.50;;;;;;4998047;28;20914;-71
2021/04/12 02:10:34;;;;;;;1.45;0.60;;;20.70;39.60;;;;;;4994920;28;20862;-73
2021/04/12 02:13:03;;;;;;;1.60;0.60;;;20.70;39.30;;;;;;5002299;28;20477;-73
2021/04/12 02:15:45;;;;;;;1.05;0.60;;;20.80;39.40;;;;;;5006317;28;20424;-72
2021/04/12 02:18:23;;;;;;;0.93;0.70;;;20.80;39.30;;;;;;5005286;28;20927;-73
2021/04/12 02:20:55;;;;;;;0.70;0.70;;;20.80;39.20;;;;;;5003099;28;20415;-72
2021/04/12 02:23:37;;;;;;;0.80;0.60;;;20.80;39.20;;;;;;5000195;28;20459;-73
2021/04/12 02:26:33;;;;;;;0.95;0.50;;;20.80;39.10;;;;;;5008628;28;20431;-72
2021/04/12 02:29:10;;;;;;;1.30;0.60;;;20.80;38.50;;;;;;4995855;28;20433;-73
2021/04/12 02:31:46;;;;;;;1.48;0.70;;;20.70;38.50;;;;;;4994120;28;20424;-73
2021/04/12 02:34:25;;;;;;;0.90;0.50;;;20.70;38.80;;;;;;5020686;28;20493;-74
2021/04/12 02:37:10;;;;;;;1.65;0.60;;;20.70;38.50;;;;;;5010220;28;20415;-72
2021/04/12 02:39:47;;;;;;;1.30;0.57;;;20.60;38.90;;;;;;4985025;28;20434;-73
2021/04/12 02:42:20;;;;;;;2.10;0.50;;;20.60;38.70;;;;;;5001818;28;20413;-72
2021/04/12 02:44:54;;;;;;;1.60;0.67;;;20.60;38.40;;;;;;5004973;28;21046;-72
2021/04/12 02:48:02;;;;;;;1.20;0.60;;;20.60;38.40;;;;;;5002171;28;20424;-72
2021/04/12 02:50:39;;;;;;;0.77;0.60;;;20.60;38.90;;;;;;4951180;28;20434;-71
2021/04/12 02:53:12;;;;;;;2.40;0.60;;;20.60;38.40;;;;;;5009278;28;20485;-73
2021/04/12 02:56:01;;;;;;;2.00;0.60;;;20.60;39.10;;;;;;4989160;28;20785;-73
2021/04/12 02:59:01;;;;;;;1.80;0.85;;;20.60;39.30;;;;;;5003041;28;20420;-72
2021/04/12 03:01:50;;;;;;;2.05;0.70;;;20.70;39.40;;;;;;5004134;28;20409;-73
2021/04/12 03:04:26;;;;;;;1.35;0.60;;;20.70;39.20;;;;;;5002617;28;21256;-72
2021/04/12 03:07:29;;;;;;;0.60;0.60;;;20.80;39.10;;;;;;4988188;28;20489;-72
2021/04/12 03:10:03;;;;;;;1.58;0.98;;;20.80;38.60;;;;;;5004869;28;20915;-71
2021/04/12 03:12:54;;;;;;;1.90;0.60;;;20.80;38.50;;;;;;5004646;28;20980;-72
2021/04/12 03:15:42;;;;;;;1.10;0.60;;;20.80;38.60;;;;;;5003919;28;20419;-73
2021/04/12 03:18:15;;;;;;;1.70;0.50;;;20.80;38.60;;;;;;5000647;28;20448;-72
2021/04/12 03:20:52;;;;;;;0.80;0.50;;;20.80;38.50;;;;;;4976144;28;20442;-74
2021/04/12 03:23:29;;;;;;;2.97;0.70;;;20.80;38.60;;;;;;5004434;28;20430;-71
2021/04/12 03:26:07;;;;;;;1.70;0.70;;;20.90;38.70;;;;;;5004642;28;20416;-73
2021/04/12 03:28:48;;;;;;;1.10;0.50;;;20.90;38.70;;;;;;4996273;28;20434;-74
2021/04/12 03:31:26;;;;;;;1.80;0.73;;;20.90;38.70;;;;;;4986380;28;20428;-72
2021/04/12 03:34:12;;;;;;;2.00;0.50;;;20.90;38.70;;;;;;5006425;28;20919;-72
2021/04/12 03:36:57;;;;;;;1.90;0.63;;;20.90;38.60;;;;;;5005952;28;20416;-72
2021/04/12 03:39:25;;;;;;;2.60;0.70;;;20.90;38.70;;;;;;5008515;28;20419;-72
2021/04/12 03:42:07;;;;;;;2.00;0.70;;;20.90;38.60;;;;;;5009071;28;20411;-73
2021/04/12 03:45:10;;;;;;;0.77;0.70;;;20.90;38.70;;;;;;5002557;28;20458;-73
2021/04/12 03:47:44;;;;;;;1.17;0.70;;;20.90;38.70;;;;;;5005861;28;20413;-73
2021/04/12 03:50:47;;;;;;;1.27;0.60;;;20.90;38.60;;;;;;5004905;28;21393;-72
2021/04/12 03:53:38;;;;;;;2.97;0.65;;;20.90;38.70;;;;;;5005070;28;20423;-73
2021/04/12 03:56:19;;;;;;;1.00;0.70;;;20.80;38.60;;;;;;4998090;28;20442;-73
2021/04/12 03:59:07;;;;;;;1.40;0.70;;;20.80;38.60;;;;;;5014155;28;20434;-74
2021/04/12 04:01:56;;;;;;;1.48;0.70;;;20.80;38.60;;;;;;4999156;28;20426;-72
2021/04/12 04:04:30;;;;;;;1.80;0.70;;;20.80;38.60;;;;;;4985214;28;20414;-72
2021/04/12 04:07:37;;;;;;;1.52;0.70;;;20.80;38.50;;;;;;5000033;28;20413;-72
2021/04/12 04:10:31;;;;;;;0.95;0.50;;;20.80;38.50;;;;;;4912743;28;21187;-72
2021/04/12 04:13:06;;;;;;;1.42;0.70;;;20.80;38.60;;;;;;4995475;28;20464;-72
2021/04/12 04:15:36;;;;;;;2.55;0.90;;;20.80;38.60;;;;;;5030084;28;20423;-74
2021/04/12 04:18:34;;;;;;;1.77;0.80;;;20.80;38.50;;;;;;5016017;28;20930;-72
2021/04/12 04:21:37;;;;;;;1.00;0.80;;;20.80;38.60;;;;;;4906512;28;20931;-70
2021/04/12 04:24:17;;;;;;;2.10;0.60;;;20.80;38.60;;;;;;5011451;28;20462;-72
2021/04/12 04:26:56;;;;;;;3.10;0.90;;;20.80;38.60;;;;;;5002358;28;20510;-72
2021/04/12 04:29:47;;;;;;;1.42;0.80;;;20.80;38.60;;;;;;5014158;28;20409;-71
2021/04/12 04:32:47;;;;;;;1.70;0.80;;;20.80;38.60;;;;;;5005774;28;20427;-72
2021/04/12 04:35:23;;;;;;;1.10;0.70;;;20.90;38.70;;;;;;5008277;28;20423;-73
2021/04/12 04:38:25;;;;;;;1.73;0.60;;;20.90;38.70;;;;;;4992921;28;20422;-72
2021/04/12 04:40:57;;;;;;;1.00;0.70;;;20.80;38.50;;;;;;5006833;28;20417;-72
2021/04/12 04:43:42;;;;;;;0.68;0.60;;;20.80;38.50;;;;;;4991297;28;20422;-72
2021/04/12 04:46:34;;;;;;;2.80;0.70;;;20.80;38.60;;;;;;4988255;28;20475;-72
2021/04/12 04:49:12;;;;;;;1.27;0.80;;;20.80;38.30;;;;;;5005639;28;20422;-72
2021/04/12 04:51:42;;;;;;;2.10;0.65;;;20.80;38.40;;;;;;5002793;28;20431;-72
2021/04/12 04:54:26;;;;;;;1.85;0.82;;;20.90;38.60;;;;;;4997150;28;20440;-72
2021/04/12 04:57:10;;;;;;;1.10;0.60;;;20.90;38.60;;;;;;4986613;28;20809;-73
2021/04/12 04:59:55;;;;;;;1.80;0.70;;;20.90;38.40;;;;;;4982576;28;20433;-72
2021/04/12 05:02:31;;;;;;;2.75;0.90;;;21.00;38.40;;;;;;5004450;28;20481;-73
2021/04/12 05:05:24;;;;;;;1.52;0.70;;;21.00;37.90;;;;;;5008869;28;20412;-73
2021/04/12 05:08:17;;;;;;;0.97;0.70;;;21.00;39.50;;;;;;4990468;28;20411;-72
2021/04/12 05:10:53;;;;;;;3.80;0.75;;;21.00;37.90;;;;;;4993153;28;20503;-72
2021/04/12 05:13:35;;;;;;;1.73;0.80;;;20.90;38.10;;;;;;5005332;28;21065;-71
2021/04/12 05:16:15;;;;;;;1.80;0.80;;;20.90;37.90;;;;;;5004405;28;20931;-73
2021/04/12 05:19:15;;;;;;;1.60;0.70;;;20.90;37.80;;;;;;4999349;28;20451;-73
2021/04/12 05:21:58;;;;;;;2.00;0.75;;;20.90;37.50;;;;;;4993891;28;20418;-73
2021/04/12 05:24:39;;;;;;;1.85;0.85;;;20.90;37.20;;;;;;5004049;28;20407;-71
2021/04/12 05:27:26;;;;;;;3.47;0.90;;;20.90;37.10;;;;;;5011300;28;20522;-74
2021/04/12 05:30:22;;;;;;;2.67;0.80;;;20.90;37.20;;;;;;5014322;28;20915;-74
2021/04/12 05:32:51;;;;;;;2.78;0.90;;;21.00;37.10;;;;;;4989046;28;20424;-72
2021/04/12 05:35:34;;;;;;;1.80;0.90;;;21.00;37.10;;;;;;4974446;28;20550;-73
2021/04/12 05:38:14;;;;;;;3.03;0.80;;;20.90;37.10;;;;;;4975013;28;20423;-73
2021/04/12 05:40:56;;;;;;;3.55;0.80;;;20.90;37.50;;;;;;5014328;28;20787;-72
2021/04/12 05:43:32;;;;;;;3.97;1.10;;;20.90;37.40;;;;;;5000276;28;20440;-72
2021/04/12 05:46:28;;;;;;;2.25;0.80;;;20.90;37.50;;;;;;4998463;28;21063;-73
2021/04/12 05:49:16;;;;;;;1.83;0.90;;;20.90;37.50;;;;;;4989394;28;20455;-72
2021/04/12 05:51:59;;;;;;;1.20;0.90;;;20.90;37.80;;;;;;4991868;28;20435;-71
2021/04/12 05:54:35;;;;;;;4.82;0.90;;;20.90;37.70;;;;;;4989897;28;20450;-71
2021/04/12 05:57:30;;;;;;;4.40;0.90;;;20.90;37.90;;;;;;4988542;28;20435;-71
2021/04/12 06:00:25;;;;;;;2.60;0.90;;;20.90;38.10;;;;;;4979060;28;21646;-71
2021/04/12 06:03:05;;;;;;;1.77;0.90;;;20.90;38.40;;;;;;4995804;28;20433;-72
2021/04/12 06:05:36;;;;;;;0.98;0.73;;;20.90;38.70;;;;;;4995204;28;20438;-71
2021/04/12 06:08:23;;;;;;;1.80;0.90;;;20.90;38.70;;;;;;4990533;28;20423;-72
2021/04/12 06:11:07;;;;;;;1.40;0.80;;;20.90;38.70;;;;;;4998497;28;20432;-71
2021/04/12 06:13:50;;;;;;;2.90;1.00;;;20.90;38.60;;;;;;5005427;28;20967;-70
2021/04/12 06:16:42;;;;;;;1.20;0.70;;;20.90;38.70;;;;;;4993470;28;20426;-71
2021/04/12 06:19:45;;;;;;;2.50;0.80;;;20.90;38.60;;;;;;5001171;28;20450;-72
2021/04/12 06:22:23;;;;;;;1.42;0.70;;;20.80;38.60;;;;;;4981786;28;20419;-73
2021/04/12 06:25:31;;;;;;;1.80;0.80;;;20.80;38.50;;;;;;5001915;28;20442;-72
2021/04/12 06:28:43;;;;;;;3.03;0.70;;;20.80;38.60;;;;;;4963625;28;20828;-73
2021/04/12 06:31:24;;;;;;;0.80;0.77;;;20.80;38.60;;;;;;5004915;28;20465;-72
2021/04/12 06:33:59;;;;;;;2.55;0.70;;;20.80;38.60;;;;;;5001563;28;20415;-73
2021/04/12 06:36:35;;;;;;;1.65;0.90;;;20.80;38.50;;;;;;4996131;28;20428;-73
2021/04/12 06:39:30;;;;;;;1.80;0.70;;;20.70;38.50;;;;;;5004694;28;21231;-74
2021/04/12 06:42:12;;;;;;;1.60;0.70;;;20.80;38.50;;;;;;5018025;28;20512;-73
2021/04/12 06:44:59;;;;;;;1.13;0.98;;;20.80;38.60;;;;;;5002235;28;21163;-73
2021/04/12 06:47:54;;;;;;;2.38;0.75;;;20.70;38.50;;;;;;4997619;28;20964;-73
2021/04/12 06:51:07;;;;;;;2.40;0.90;;;20.70;38.40;;;;;;4974226;28;20407;-72
2021/04/12 06:54:10;;;;;;;1.60;0.60;;;20.70;38.40;;;;;;4905283;29;20467;-72
2021/04/12 06:57:22;;;;;;;2.10;1.00;;;20.70;38.40;;;;;;4886667;29;20421;-73
2021/04/12 07:00:01;;;;;;;2.20;0.70;;;20.70;38.50;;;;;;5001937;28;20972;-72
2021/04/12 07:02:50;;;;;;;1.40;0.70;;;20.70;38.50;;;;;;4997313;28;20450;-73
2021/04/12 07:05:50;;;;;;;0.93;0.60;;;20.70;38.50;;;;;;5015537;28;20430;-73
2021/04/12 07:08:50;;;;;;;2.13;0.90;;;20.70;38.50;;;;;;5000840;28;20433;-72
2021/04/12 07:11:54;;;;;;;0.82;0.60;;;20.80;38.60;;;;;;4998644;28;20418;-73
2021/04/12 07:14:55;;;;;;;1.40;0.63;;;20.70;38.50;;;;;;5003717;28;20430;-72
2021/04/12 07:17:53;;;;;;;1.52;0.70;;;20.70;38.50;;;;;;5005136;28;20418;-72
2021/04/12 07:20:55;;;;;;;2.22;0.80;;;20.70;38.50;;;;;;5001202;28;20783;-73
2021/04/12 07:23:46;;;;;;;1.60;1.00;;;20.70;38.50;;;;;;5004115;28;20420;-72
2021/04/12 07:26:50;;;;;;;1.42;1.10;;;20.70;38.40;;;;;;4985531;28;20484;-72
2021/04/12 07:29:48;;;;;;;1.30;0.80;;;20.70;38.50;;;;;;4995712;28;20469;-73
2021/04/12 07:32:50;;;;;;;1.10;0.80;;;20.70;38.40;;;;;;4979282;28;20415;-72
2021/04/12 07:35:23;;;;;;;1.58;0.70;;;20.70;38.50;;;;;;5003348;28;20421;-73
2021/04/12 07:38:28;;;;;;;1.00;0.90;;;20.60;38.40;;;;;;5006508;28;20435;-72
2021/04/12 07:41:40;;;;;;;1.77;0.65;;;20.60;38.40;;;;;;4968513;28;20405;-73
2021/04/12 07:44:34;;;;;;;2.60;0.80;;;20.60;38.40;;;;;;5011724;28;20482;-73
2021/04/12 07:47:30;;;;;;;1.35;0.80;;;20.60;38.40;;;;;;4998347;28;20459;-73
2021/04/12 07:50:45;;;;;;;1.70;0.70;;;20.70;38.50;;;;;;4990648;28;20450;-71
2021/04/12 07:53:53;;;;;;;1.90;0.50;;;20.70;38.50;;;;;;4932945;28;20425;-73
2021/04/12 07:57:10;;;;;;;2.80;0.63;;;20.70;38.40;;;;;;5001461;28;20527;-72
2021/04/12 08:00:18;;;;;;;0.70;0.60;;;20.70;38.80;;;;;;4914492;29;20458;-72
2021/04/12 08:03:29;;;;;;;1.90;0.80;;;20.70;38.50;;;;;;4930554;28;20425;-72
2021/04/12 08:06:50;;;;;;;1.35;0.70;;;20.70;38.40;;;;;;4999350;28;20408;-72
2021/04/12 08:09:50;;;;;;;1.80;0.60;;;20.70;38.40;;;;;;5000724;28;20428;-72
2021/04/12 08:13:08;;;;;;;0.93;0.60;;;20.70;38.50;;;;;;5005393;28;20426;-71
2021/04/12 08:16:02;;;;;;;0.80;0.57;;;20.70;38.50;;;;;;4933326;28;20418;-72
2021/04/12 08:18:47;;;;;;;1.60;0.70;;;20.70;38.50;;;;;;4931848;28;20434;-72
2021/04/12 08:21:56;;;;;;;3.60;0.70;;;20.70;38.90;;;;;;4990223;28;20432;-72
2021/04/12 08:24:46;;;;;;;1.50;0.80;;;20.70;38.50;;;;;;5003919;28;20450;-72
2021/04/12 08:27:52;;;;;;;1.40;0.70;;;20.70;38.50;;;;;;5002276;28;20399;-72
2021/04/12 08:31:07;;;;;;;1.70;0.68;;;20.80;38.50;;;;;;4996722;28;20760;-72
2021/04/12 08:34:31;;;;;;;2.50;0.68;;;20.80;38.50;;;;;;4998036;28;20405;-73
2021/04/12 08:37:37;;;;;;;0.60;0.60;;;20.80;38.60;;;;;;5008242;28;20420;-73
2021/04/12 08:40:33;;;;;;;1.42;0.60;;;20.80;38.60;;;;;;4984934;28;20452;-73
2021/04/12 08:43:35;;;;;;;1.63;0.73;;;20.80;38.60;;;;;;4982004;28;20631;-72
2021/04/12 08:46:52;;;;;;;1.30;0.70;;;20.80;38.60;;;;;;4991974;28;20405;-73
2021/04/12 08:50:04;;;;;;;1.00;0.70;;;20.80;38.50;;;;;;4928250;28;20434;-71
2021/04/12 08:52:54;;;;;;;2.20;0.90;;;20.80;38.60;;;;;;4873460;29;20491;-73
2021/04/12 08:55:56;;;;;;;4.03;0.80;;;20.80;38.60;;;;;;4994525;28;20432;-73
2021/04/12 08:58:54;;;;;;;3.10;0.60;;;20.80;38.60;;;;;;4974612;28;20443;-72
2021/04/12 09:01:48;;;;;;;1.75;0.63;;;20.80;38.60;;;;;;4989082;28;20506;-72
2021/04/12 09:04:55;;;;;;;2.77;0.70;;;20.80;38.50;;;;;;4994803;28;20448;-71
2021/04/12 09:07:31;;;;;;;1.80;0.70;;;20.80;38.60;;;;;;4985540;28;20419;-71
2021/04/12 09:10:15;;;;;;;2.75;0.90;;;20.80;38.60;;;;;;4991506;28;20427;-73
2021/04/12 09:12:52;;;;;;;2.30;0.60;;;20.90;38.60;;;;;;5015259;28;20411;-72
2021/04/12 09:15:50;;;;;;;1.80;0.70;;;20.90;38.70;;;;;;4964400;28;20468;-72
2021/04/12 09:18:45;;;;;;;1.73;0.90;;;20.90;38.70;;;;;;4979559;28;20416;-72
2021/04/12 09:21:34;;;;;;;1.00;0.60;;;20.90;38.70;;;;;;5004847;28;20516;-72
2021/04/12 09:24:42;;;;;;;1.75;0.60;;;20.90;38.70;;;;;;4973563;28;20426;-72
2021/04/12 09:27:28;;;;;;;1.35;0.70;;;20.90;38.60;;;;;;4997511;28;20427;-71
2021/04/12 09:30:18;;;;;;;0.90;0.70;;;20.90;38.70;;;;;;5001824;28;21039;-71
2021/04/12 09:32:59;;;;;;;2.33;0.80;;;20.90;38.70;;;;;;4996789;28;20461;-72
2021/04/12 09:35:48;;;;;;;1.20;0.70;;;20.90;39.40;;;;;;4996778;28;20421;-72
2021/04/12 09:39:03;;;;;;;1.48;1.00;;;20.80;38.50;;;;;;4998579;28;20434;-71
2021/04/12 09:41:38;;;;;;;1.00;0.60;;;20.80;38.50;;;;;;4908611;28;20419;-72
2021/04/12 09:44:28;;;;;;;1.77;0.70;;;20.80;38.60;;;;;;4981107;28;20918;-73
2021/04/12 09:47:31;;;;;;;1.58;0.70;;;20.80;38.60;;;;;;4995645;28;20411;-73
2021/04/12 09:50:26;;;;;;;0.80;0.70;;;20.80;38.60;;;;;;5002675;28;20412;-73
2021/04/12 09:52:57;;;;;;;1.60;0.60;;;20.80;38.60;;;;;;4996354;28;20409;-73
2021/04/12 09:55:57;;;;;;;1.17;0.63;;;20.80;38.60;;;;;;4985104;28;20439;-73
2021/04/12 09:58:50;;;;;;;2.70;0.70;;;20.80;38.50;;;;;;4896744;28;21081;-74
2021/04/12 10:01:20;;;;;;;1.17;0.67;;;20.80;38.60;;;;;;4953912;28;20425;-72
2021/04/12 10:04:21;;;;;;;0.85;0.75;;;20.80;38.60;;;;;;4983033;28;20443;-73
2021/04/12 10:07:12;;;;;;;1.50;0.50;;;20.80;38.60;;;;;;4999846;28;20492;-72
2021/04/12 10:09:58;;;;;;;2.03;0.55;;;20.90;38.60;;;;;;5001932;28;20444;-72
2021/04/12 10:12:36;;;;;;;0.70;0.60;;;20.90;38.70;;;;;;4995829;28;20445;-72
2021/04/12 10:15:06;;;;;;;1.20;0.50;;;20.90;38.70;;;;;;4997169;28;20427;-72
2021/04/12 10:17:39;;;;;;;1.67;0.70;;;20.90;38.60;;;;;;5001363;28;20417;-72
2021/04/12 10:20:10;;;;;;;1.00;0.60;;;20.90;38.70;;;;;;5000848;28;20424;-72
2021/04/12 10:22:45;;;;;;;1.30;0.60;;;20.90;38.70;;;;;;4998842;28;21208;-74
2021/04/12 10:25:13;;;;;;;0.88;0.60;;;20.90;38.60;;;;;;4997704;28;20405;-72
2021/04/12 10:27:41;;;;;;;1.60;0.60;;;20.80;38.50;;;;;;5000721;28;20414;-70
2021/04/12 10:30:10;;;;;;;1.40;0.70;;;20.80;38.60;;;;;;4974654;28;20432;-73
2021/04/12 10:32:37;;;;;;;0.75;0.60;;;20.80;38.60;;;;;;4986412;28;20813;-72
2021/04/12 10:35:06;;;;;;;0.77;0.60;;;20.80;38.50;;;;;;4993960;28;20424;-72
2021/04/12 10:37:35;;;;;;;1.50;0.60;;;20.80;38.60;;;;;;5007889;28;20425;-71
2021/04/12 10:40:09;;;;;;;1.70;0.80;;;20.70;38.40;;;;;;4953509;28;20465;-72
2021/04/12 10:42:38;;;;;;;0.60;0.60;;;20.80;38.60;;;;;;4997829;28;20427;-72
2021/04/12 10:45:09;;;;;;;3.10;0.80;;;20.80;38.60;;;;;;5002461;28;20419;-73
2021/04/12 10:47:42;;;;;;;2.00;0.60;;;20.80;38.60;;;;;;5002196;28;20426;-73
2021/04/12 10:50:13;;;;;;;1.40;0.50;;;20.80;38.60;;;;;;4999389;28;20433;-73
2021/04/12 10:52:53;;;;;;;1.92;0.60;;;20.80;38.50;;;;;;5008425;28;20478;-72
2021/04/12 10:55:21;;;;;;;1.95;0.60;;;20.80;38.50;;;;;;4991293;28;20509;-72
2021/04/12 10:58:02;;;;;;;2.30;0.60;;;20.90;38.70;;;;;;4998197;28;20474;-73
2021/04/12 11:00:36;;;;;;;1.45;0.50;;;20.90;38.70;;;;;;4990783;28;20512;-72
2021/04/12 11:03:24;;;;;;;0.60;0.43;;;20.90;40.60;;;;;;4991307;28;20432;-72
2021/04/12 11:06:04;;;;;;;0.80;0.50;;;20.90;38.70;;;;;;4978247;28;20408;-71
2021/04/12 11:08:31;;;;;;;0.60;0.60;;;20.90;38.70;;;;;;4985948;28;21021;-73
2021/04/12 11:11:08;;;;;;;0.88;0.60;;;20.80;38.50;;;;;;4981827;28;20440;-73
2021/04/12 11:13:35;;;;;;;0.80;0.50;;;20.80;38.60;;;;;;4982788;28;20416;-71
2021/04/12 11:16:08;;;;;;;1.60;0.60;;;20.80;38.60;;;;;;4985057;28;21636;-73
2021/04/12 11:18:35;;;;;;;0.90;0.60;;;20.80;38.60;;;;;;4977542;28;20431;-72
2021/04/12 11:21:14;;;;;;;0.70;0.50;;;20.80;38.60;;;;;;4973260;28;20498;-70
2021/04/12 11:23:44;;;;;;;0.47;0.47;;;20.80;38.60;;;;;;5002687;28;20455;-71
2021/04/12 11:26:25;;;;;;;0.80;0.50;;;20.80;38.60;;;;;;4990135;28;20440;-71
2021/04/12 11:28:53;;;;;;;0.50;0.50;;;20.90;38.70;;;;;;4979154;28;20435;-71
2021/04/12 11:31:39;;;;;;;1.60;0.50;;;20.90;38.70;;;;;;5001709;28;20985;-72
2021/04/12 11:34:11;;;;;;;0.80;0.50;;;20.90;38.70;;;;;;4996313;28;20784;-72
2021/04/12 11:36:44;;;;;;;1.15;0.40;;;20.90;38.60;;;;;;4989200;28;20419;-72
2021/04/12 11:39:12;;;;;;;0.65;0.50;;;20.90;38.60;;;;;;5014594;28;20421;-71
2021/04/12 11:41:49;;;;;;;1.13;0.50;;;20.90;38.60;;;;;;4996410;28;20419;-72
2021/04/12 11:44:18;;;;;;;0.50;0.50;;;20.80;38.50;;;;;;5009476;28;20479;-71
2021/04/12 11:46:58;;;;;;;0.73;0.45;;;20.80;38.60;;;;;;5004271;28;20446;-73
2021/04/12 11:49:26;;;;;;;0.70;0.40;;;20.80;38.60;;;;;;4995452;28;21490;-72
2021/04/12 11:51:55;;;;;;;1.30;0.40;;;20.80;38.50;;;;;;4999001;28;20423;-72
2021/04/12 11:54:26;;;;;;;0.60;0.40;;;20.80;38.60;;;;;;5006472;28;20411;-72
2021/04/12 11:56:57;;;;;;;1.30;0.60;;;20.80;38.70;;;;;;5000540;28;20421;-72
2021/04/12 11:59:35;;;;;;;1.07;0.60;;;20.80;38.60;;;;;;5003206;28;20438;-72
2021/04/12 12:02:07;;;;;;;0.57;0.40;;;20.70;38.50;;;;;;4994498;28;20436;-71
2021/04/12 12:04:40;;;;;;;1.67;0.40;;;20.70;38.50;;;;;;4996599;28;20444;-72
2021/04/12 12:07:09;;;;;;;0.57;0.40;;;20.70;38.40;;;;;;5003070;28;20419;-72
2021/04/12 12:09:43;;;;;;;0.90;0.50;;;20.70;38.50;;;;;;5001308;28;20901;-72
2021/04/12 12:12:31;;;;;;;0.77;0.50;;;20.70;38.50;;;;;;5012328;28;20437;-72
2021/04/12 12:15:02;;;;;;;0.50;0.40;;;20.70;38.50;;;;;;5000320;28;20415;-70
2021/04/12 12:17:35;;;;;;;0.40;0.40;;;20.70;38.40;;;;;;5002100;28;20430;-71
2021/04/12 12:20:05;;;;;;;1.60;0.50;;;20.80;38.60;;;;;;4991234;28;20423;-72
2021/04/12 12:22:48;;;;;;;0.70;0.52;;;20.80;38.60;;;;;;4976215;28;20808;-72
2021/04/12 12:25:18;;;;;;;0.50;0.40;;;20.80;39.40;;;;;;4993358;28;20778;-72
2021/04/12 12:27:51;;;;;;;0.50;0.50;;;20.80;38.60;;;;;;4996012;28;20412;-72
2021/04/12 12:30:19;;;;;;;0.50;0.40;;;20.80;38.60;;;;;;4999572;28;20415;-73
2021/04/12 12:32:51;;;;;;;0.70;0.40;;;20.80;38.60;;;;;;5003429;28;20477;-71
2021/04/12 12:35:23;;;;;;;0.88;0.60;;;20.80;38.50;;;;;;4996705;28;20517;-72
2021/04/12 12:38:37;;;;;;;0.70;0.50;;;20.70;38.50;;;;;;4989717;28;20430;-72
2021/04/12 12:41:04;;;;;;;1.10;0.60;;;20.70;38.40;;;;;;4941408;28;20441;-70
2021/04/12 12:43:32;;;;;;;0.60;0.40;;;20.70;38.40;;;;;;5001796;28;20432;-71
2021/04/12 12:46:06;;;;;;;0.90;0.50;;;20.70;38.50;;;;;;4983679;28;20976;-72
2021/04/12 12:48:33;;;;;;;1.42;0.50;;;20.70;38.40;;;;;;4986256;28;20429;-71
2021/04/12 12:51:01;;;;;;;0.50;0.50;;;20.70;38.50;;;;;;5001764;28;20434;-72
2021/04/12 12:53:29;;;;;;;0.80;0.50;;;20.70;38.50;;;;;;5014801;28;20406;-72
2021/04/12 12:55:56;;;;;;;0.50;0.50;;;20.70;38.50;;;;;;4966291;28;20527;-72
2021/04/12 12:58:23;;;;;;;1.03;0.80;;;20.70;38.50;;;;;;4967522;28;20463;-71
2021/04/12 13:00:52;;;;;;;0.70;0.60;;;20.70;38.50;;;;;;4990160;28;20465;-74
2021/04/12 13:03:20;;;;;;;1.33;0.60;;;20.70;38.40;;;;;;5013433;28;20423;-71
2021/04/12 13:05:47;;;;;;;0.50;0.40;;;20.70;38.50;;;;;;4995438;28;21159;-72
2021/04/12 13:08:15;;;;;;;0.80;0.60;;;20.70;38.50;;;;;;5008493;28;20431;-71
2021/04/12 13:10:42;;;;;;;1.00;0.60;;;20.70;38.50;;;;;;4963981;28;20952;-72
2021/04/12 13:13:25;;;;;;;0.73;0.40;;;20.70;38.50;;;;;;4998996;28;27338;-72
2021/04/12 13:15:52;;;;;;;0.67;0.47;;;20.80;38.50;;;;;;4991311;28;20413;-73
2021/04/12 13:18:29;;;;;;;1.20;0.60;;;20.80;38.60;;;;;;4996229;28;20413;-72
2021/04/12 13:21:00;;;;;;;3.30;0.77;;;20.80;38.60;;;;;;5016390;28;20410;-72
2021/04/12 13:23:29;;;;;;;0.50;0.40;;;20.80;38.50;;;;;;4991175;28;20453;-72
2021/04/12 13:25:56;;;;;;;1.50;0.50;;;20.80;38.60;;;;;;4992381;28;21062;-72
2021/04/12 13:28:24;;;;;;;0.67;0.60;;;20.70;38.40;;;;;;4994950;28;20538;-73
2021/04/12 13:30:58;;;;;;;1.70;0.50;;;20.70;38.50;;;;;;5000912;28;20422;-71
2021/04/12 13:33:28;;;;;;;1.57;0.60;;;20.70;38.40;;;;;;4991091;28;20429;-73
2021/04/12 13:35:56;;;;;;;2.40;0.40;;;20.70;38.50;;;;;;5001151;28;20559;-73
2021/04/12 13:38:24;;;;;;;0.73;0.50;;;20.70;38.50;;;;;;5007037;28;21048;-72
2021/04/12 13:40:59;;;;;;;1.43;0.70;;;20.70;38.50;;;;;;4991878;28;20424;-74
2021/04/12 13:43:28;;;;;;;0.50;0.40;;;20.70;38.50;;;;;;5008629;28;20415;-71
2021/04/12 13:45:55;;;;;;;0.73;0.60;;;20.70;38.50;;;;;;4983668;28;20781;-72
2021/04/12 13:48:22;;;;;;;0.50;0.45;;;20.70;38.50;;;;;;5002836;28;20408;-72
2021/04/12 13:50:52;;;;;;;2.30;0.60;;;20.70;38.40;;;;;;5001543;28;20421;-72
2021/04/12 13:53:23;;;;;;;1.40;0.50;;;20.80;38.60;;;;;;5002986;28;20412;-72
2021/04/12 13:55:51;;;;;;;0.70;0.50;;;20.80;38.50;;;;;;4997159;28;20422;-73
2021/04/12 13:58:24;;;;;;;1.00;0.60;;;20.80;38.60;;;;;;5014112;28;20416;-72
2021/04/12 14:00:51;;;;;;;0.57;0.50;;;20.80;38.60;;;;;;4985204;28;20419;-71
2021/04/12 14:03:26;;;;;;;3.40;0.60;;;20.90;38.60;;;;;;4988051;28;20463;-72
2021/04/12 14:05:54;;;;;;;2.00;0.50;;;20.90;38.60;;;;;;4997339;28;20399;-72
2021/04/12 14:08:22;;;;;;;2.80;0.70;;;20.90;38.70;;;;;;4990916;28;20503;-73
2021/04/12 14:10:53;;;;;;;0.77;0.50;;;20.80;38.60;;;;;;4983574;28;20931;-72